WXM80 ListenWXM80 Stop

You find our weather info also at:

UK Metoffice

WeatherCloud

Weather Underground

Northeastern Weather Network

AWEKAS

Citizen Weather Observer Program (CWOP)

HAMweather, WeatherForYou, PWS Weather


Weather Underground History page Text

Daily Summary for June 21, 2017 Units:  Metric    English   Both
« Previous Day
Next Day »
Daily Weekly Monthly Yearly Custom
  High: Low: Average:
Temperature: 31.8 °C 20.8 °C 25.3 °C
Dew Point: 20.1 °C 15.8 °C 18.1 °C
Humidity: 90 % 40 % 67 %
Wind Speed: 11.9 km/h 0 km/h 2.7 km/h
Wind Gust: 25.9 km/h - -
Wind:- - WSW
Pressure: 1012.4 hPa 1009 hPa -
Precipitation: 0 mm    
Historical Graphs
 
 
Tabular Data for June 21, 2017
Time Temperature Dew Point Pressure Wind Wind Speed Wind Gust Humidity Rainfall Rate (Hourly)
00:04 20.9 °C 16.9 °C 1012.4 hPa SW 0.8 km/h 5.6 km/h 78 % 0 mm
00:09 21.1 °C 17.1 °C 1012.1 hPa WSW 2.6 km/h 7.4 km/h 78 % 0 mm
00:12 21.1 °C 17.1 °C 1012.1 hPa WSW 1 km/h 3.7 km/h 78 % 0 mm
00:17 21.2 °C 17.2 °C 1012.1 hPa WSW 3.7 km/h 5.6 km/h 78 % 0 mm
00:22 21.3 °C 17.5 °C 1012.1 hPa SSW 1.3 km/h 3.7 km/h 79 % 0 mm
00:27 21.3 °C 17.6 °C 1012.1 hPa WSW 2.6 km/h 5.6 km/h 79 % 0 mm
00:32 21.4 °C 17.6 °C 1012.1 hPa SSW 1.9 km/h 5.6 km/h 79 % 0 mm
00:37 21.4 °C 17.8 °C 1012.1 hPa SSW 1.4 km/h 5.6 km/h 80 % 0 mm
00:42 21.4 °C 17.8 °C 1012.1 hPa SW 2.1 km/h 6.4 km/h 80 % 0 mm
00:47 21.5 °C 17.9 °C 1012.1 hPa WSW 2.7 km/h 7.4 km/h 80 % 0 mm
00:53 21.6 °C 17.9 °C 1012.1 hPa South 2.3 km/h 11.1 km/h 80 % 0 mm
00:57 21.6 °C 18 °C 1012.1 hPa SW 1.6 km/h 5.6 km/h 80 % 0 mm
01:02 21.6 °C 18 °C 1012.1 hPa WSW 2.3 km/h 5.6 km/h 80 % 0 mm
01:08 21.7 °C 18.3 °C 1012.1 hPa SW 4.5 km/h 6.4 km/h 81 % 0 mm
01:13 21.7 °C 18.3 °C 1011.7 hPa SW 0.5 km/h 5.6 km/h 81 % 0 mm
01:18 21.7 °C 18.3 °C 1011.7 hPa SW 1.3 km/h 3.7 km/h 81 % 0 mm
01:23 21.8 °C 18.4 °C 1011.7 hPa SW 1.6 km/h 5.6 km/h 81 % 0 mm
01:28 21.8 °C 18.4 °C 1011.7 hPa SW 0.6 km/h 3.7 km/h 81 % 0 mm
01:33 21.8 °C 18.4 °C 1011.7 hPa West 0.6 km/h 3.7 km/h 81 % 0 mm
01:38 21.8 °C 18.4 °C 1011.7 hPa Calm   5.6 km/h 81 % 0 mm
01:43 21.8 °C 18.4 °C 1011.7 hPa SSW 0.3 km/h 1.9 km/h 81 % 0 mm
01:48 21.8 °C 18.6 °C 1011.7 hPa SW 0.6 km/h 1.9 km/h 82 % 0 mm
01:53 21.8 °C 18.6 °C 1011.7 hPa SSW 2.6 km/h 3.7 km/h 82 % 0 mm
01:58 21.8 °C 18.6 °C 1011.7 hPa SW 0.6 km/h 1.9 km/h 82 % 0 mm
02:03 21.8 °C 18.8 °C 1011.7 hPa WSW 4.8 km/h 9.3 km/h 83 % 0 mm
02:08 21.8 °C 18.8 °C 1011.7 hPa WSW 2.4 km/h 5.6 km/h 83 % 0 mm
02:13 21.8 °C 19 °C 1011.7 hPa SW 1.9 km/h 5.6 km/h 84 % 0 mm
02:18 21.8 °C 19 °C 1011.7 hPa WSW 1.4 km/h 4.8 km/h 84 % 0 mm
02:23 21.8 °C 19 °C 1011.4 hPa SW 1.6 km/h 5.6 km/h 84 % 0 mm
02:28 21.9 °C 19.1 °C 1011.7 hPa SSW 0.2 km/h 11.1 km/h 84 % 0 mm
02:33 21.9 °C 19.1 °C 1011.4 hPa SW 0.5 km/h 5.6 km/h 84 % 0 mm
02:38 21.9 °C 19.3 °C 1011.4 hPa WSW 0.8 km/h 5.6 km/h 85 % 0 mm
02:43 22 °C 19.3 °C 1011.4 hPa WSW 1.4 km/h 3.7 km/h 85 % 0 mm
02:48 22.1 °C 19.4 °C 1011.4 hPa Calm     85 % 0 mm
02:53 22.1 °C 19.2 °C 1011.4 hPa WSW 0.3 km/h 1.9 km/h 84 % 0 mm
02:58 22.1 °C 19.3 °C 1011.4 hPa WSW 0.6 km/h 1.9 km/h 84 % 0 mm
03:03 22.1 °C 19.3 °C 1011.4 hPa SW 0.3 km/h 1.9 km/h 84 % 0 mm
03:08 22.1 °C 19.3 °C 1011.4 hPa SW 1.1 km/h 1.9 km/h 84 % 0 mm
03:13 22.1 °C 19.3 °C 1011.4 hPa SW 0.3 km/h 3.7 km/h 84 % 0 mm
03:15 22.1 °C 19.3 °C 1011.4 hPa SW 2.4 km/h 3.7 km/h 84 % 0 mm
03:20 22.1 °C 19.3 °C 1011.1 hPa SW 0.8 km/h 3.7 km/h 84 % 0 mm
03:25 22.1 °C 19.4 °C 1011.1 hPa Calm     85 % 0 mm
03:30 22.1 °C 19.4 °C 1011.4 hPa WSW 0.2 km/h 1.9 km/h 85 % 0 mm
03:35 22.1 °C 19.4 °C 1011.1 hPa SW 0.3 km/h 3.7 km/h 85 % 0 mm
03:40 22.1 °C 19.4 °C 1011.1 hPa SW 0.3 km/h 1.9 km/h 85 % 0 mm
03:45 22 °C 19.3 °C 1011.1 hPa Calm     85 % 0 mm
03:50 22 °C 19.3 °C 1011.1 hPa Calm   1.6 km/h 85 % 0 mm
03:55 22 °C 19.3 °C 1011.1 hPa Calm     85 % 0 mm
04:00 21.9 °C 19.3 °C 1011.1 hPa West 1 km/h 3.2 km/h 85 % 0 mm
04:05 21.9 °C 19.3 °C 1011.4 hPa West 0.2 km/h 3.2 km/h 85 % 0 mm
04:10 21.9 °C 19.3 °C 1011.4 hPa WSW 1.3 km/h 5.6 km/h 85 % 0 mm
04:15 21.9 °C 19.4 °C 1011.4 hPa SW 0.6 km/h 5.6 km/h 86 % 0 mm
04:20 21.8 °C 19.4 °C 1011.4 hPa Calm     86 % 0 mm
04:25 21.8 °C 19.4 °C 1011.4 hPa SW 0.6 km/h 1.6 km/h 86 % 0 mm
04:30 21.8 °C 19.4 °C 1011.4 hPa SW 0.3 km/h 1.9 km/h 86 % 0 mm
04:35 21.8 °C 19.3 °C 1011.4 hPa West 0.3 km/h 3.7 km/h 86 % 0 mm
04:40 21.8 °C 19.3 °C 1011.4 hPa West 1.3 km/h 4.8 km/h 86 % 0 mm
04:45 21.8 °C 19.5 °C 1011.4 hPa West 1 km/h 1.9 km/h 87 % 0 mm
04:50 21.7 °C 19.4 °C 1011.4 hPa Calm   1.6 km/h 87 % 0 mm
04:55 21.7 °C 19.4 °C 1011.4 hPa Calm     87 % 0 mm
05:00 21.7 °C 19.4 °C 1011.4 hPa West 1.1 km/h 4.8 km/h 87 % 0 mm
05:01 21.7 °C 19.4 °C 1011.4 hPa West 1.9 km/h 5.6 km/h 87 % 0 mm
05:06 21.7 °C 19.4 °C 1011.7 hPa West 1.1 km/h 4.8 km/h 87 % 0 mm
05:11 21.6 °C 19.3 °C 1011.7 hPa Calm   1.9 km/h 87 % 0 mm
05:16 21.6 °C 19.3 °C 1011.7 hPa West 0.5 km/h 3.7 km/h 87 % 0 mm
05:21 21.5 °C 19.2 °C 1011.7 hPa West 0.6 km/h 3.7 km/h 87 % 0 mm
05:26 21.5 °C 19.2 °C 1011.4 hPa Calm     87 % 0 mm
05:31 21.4 °C 19.1 °C 1011.7 hPa Calm     87 % 0 mm
05:36 21.3 °C 19.1 °C 1011.4 hPa Calm     87 % 0 mm
05:41 21.3 °C 19 °C 1011.4 hPa Calm     87 % 0 mm
05:46 21.2 °C 18.9 °C 1011.4 hPa Calm     87 % 0 mm
05:51 21.2 °C 18.9 °C 1011.7 hPa Calm     87 % 0 mm
05:56 21.1 °C 19 °C 1011.4 hPa Calm     88 % 0 mm
06:01 21 °C 18.9 °C 1011.7 hPa Calm     88 % 0 mm
06:06 20.9 °C 18.9 °C 1011.7 hPa Calm     88 % 0 mm
06:11 20.9 °C 18.8 °C 1011.7 hPa Calm     88 % 0 mm
06:16 20.9 °C 18.8 °C 1011.7 hPa Calm     88 % 0 mm
06:22 20.8 °C 18.9 °C 1011.7 hPa West 0.2 km/h 1.6 km/h 89 % 0 mm
06:27 20.8 °C 19.1 °C 1011.7 hPa West 1.8 km/h 3.2 km/h 90 % 0 mm
06:32 20.9 °C 19.2 °C 1012.1 hPa SSW 2.4 km/h 5.6 km/h 90 % 0 mm
06:37 20.9 °C 19.2 °C 1012.1 hPa SSW 0.2 km/h 1.9 km/h 90 % 0 mm
06:42 21.1 °C 19.3 °C 1012.1 hPa South 0.8 km/h 3.7 km/h 90 % 0 mm
06:47 21.1 °C 19.4 °C 1012.1 hPa South 0.8 km/h 3.7 km/h 90 % 0 mm
06:52 21.3 °C 19.4 °C 1012.1 hPa SW 3.5 km/h 5.6 km/h 89 % 0 mm
06:57 21.5 °C 19.4 °C 1012.1 hPa SSW 1 km/h 3.7 km/h 88 % 0 mm
07:02 21.7 °C 19.4 °C 1012.1 hPa SW 1.8 km/h 5.6 km/h 87 % 0 mm
07:07 22 °C 19.3 °C 1012.1 hPa WSW 0.5 km/h 1.9 km/h 85 % 0 mm
07:12 22.3 °C 19.2 °C 1011.7 hPa WSW 2.4 km/h 4.8 km/h 83 % 0 mm
07:17 22.6 °C 19.4 °C 1012.1 hPa SW 1 km/h 1.9 km/h 82 % 0 mm
07:22 22.9 °C 19.3 °C 1012.1 hPa SW 0.3 km/h 5.6 km/h 80 % 0 mm
07:27 23.2 °C 19.3 °C 1012.1 hPa SW 3.1 km/h 3.7 km/h 79 % 0 mm
07:32 23.4 °C 19.2 °C 1012.1 hPa SW 1.4 km/h 3.7 km/h 77 % 0 mm
07:37 23.7 °C 18.9 °C 1012.1 hPa West 1.4 km/h 9.3 km/h 75 % 0 mm
07:42 23.8 °C 19.1 °C 1012.1 hPa SW 3.2 km/h 5.6 km/h 75 % 0 mm
07:44 23.9 °C 19.2 °C 1012.1 hPa SW 1.9 km/h 5.6 km/h 75 % 0 mm
07:49 24.1 °C 19.3 °C 1012.1 hPa WSW 2.1 km/h 5.6 km/h 75 % 0 mm
07:54 24.1 °C 19.4 °C 1012.1 hPa WSW 6 km/h 9.7 km/h 75 % 0 mm
07:59 24.1 °C 19.2 °C 1012.1 hPa WSW 2.9 km/h 9.3 km/h 74 % 0 mm
08:04 24.2 °C 19 °C 1012.1 hPa WSW 1.8 km/h 5.6 km/h 73 % 0 mm
08:09 24.2 °C 19.1 °C 1012.1 hPa NW 2.3 km/h 6.4 km/h 73 % 0 mm
08:14 24.2 °C 19.3 °C 1012.1 hPa WNW 2.3 km/h 5.6 km/h 74 % 0 mm
08:19 24.3 °C 20.1 °C 1012.1 hPa NW 0.5 km/h 1.9 km/h 77 % 0 mm
08:24 24.3 °C 20.1 °C 1012.4 hPa NNE 5 km/h 14.8 km/h 77 % 0 mm
08:29 24.3 °C 20 °C 1012.1 hPa SSW 0.5 km/h 3.7 km/h 77 % 0 mm
08:34 24.3 °C 20 °C 1012.1 hPa SW 5.1 km/h 7.4 km/h 77 % 0 mm
08:39 24.3 °C 19.8 °C 1012.1 hPa WNW 0.3 km/h 5.6 km/h 76 % 0 mm
08:44 24.3 °C 19.6 °C 1012.1 hPa West 2.6 km/h 7.4 km/h 75 % 0 mm
08:49 24.3 °C 18.9 °C 1012.1 hPa SW 7.9 km/h 9.3 km/h 72 % 0 mm
08:54 24.4 °C 19.1 °C 1012.1 hPa WNW 3.2 km/h 9.7 km/h 72 % 0 mm
08:59 24.5 °C 19.3 °C 1012.1 hPa NW 0.5 km/h 5.6 km/h 73 % 0 mm
09:04 24.6 °C 19.7 °C 1011.7 hPa WNW 4.7 km/h 7.4 km/h 74 % 0 mm
09:09 24.7 °C 18.8 °C 1011.7 hPa WSW 3.2 km/h 9.3 km/h 70 % 0 mm
09:14 24.8 °C 17.8 °C 1011.7 hPa SW 5.3 km/h 7.4 km/h 65 % 0 mm
09:19 24.8 °C 17.3 °C 1011.7 hPa SW 8.4 km/h 9.3 km/h 63 % 0 mm
09:24 25 °C 17.4 °C 1011.7 hPa WSW 5 km/h 7.4 km/h 63 % 0 mm
09:29 25.1 °C 17.8 °C 1011.7 hPa West 2.3 km/h 9.3 km/h 64 % 0 mm
09:34 25.2 °C 17.9 °C 1011.7 hPa WNW 5.6 km/h 7.4 km/h 64 % 0 mm
09:39 25.3 °C 17.8 °C 1012.1 hPa West 8.2 km/h 11.3 km/h 63 % 0 mm
09:44 25.5 °C 17.7 °C 1012.1 hPa SW 4.8 km/h 14.8 km/h 62 % 0 mm
09:50 25.7 °C 17.6 °C 1012.1 hPa WNW 2.7 km/h 11.1 km/h 61 % 0 mm
09:55 26 °C 17.6 °C 1012.1 hPa NW 4.3 km/h 9.3 km/h 60 % 0 mm
10:00 26.3 °C 17.6 °C 1012.1 hPa West 5.6 km/h 6.4 km/h 59 % 0 mm
10:05 26.4 °C 17.7 °C 1012.1 hPa West 4.2 km/h 9.3 km/h 59 % 0 mm
10:10 26.6 °C 17.6 °C 1011.7 hPa NW 6.1 km/h 11.3 km/h 58 % 0 mm
10:15 26.8 °C 17.6 °C 1011.7 hPa SW 3.5 km/h 9.7 km/h 57 % 0 mm
10:20 27.1 °C 16.9 °C 1011.7 hPa WSW 8.5 km/h 14.8 km/h 54 % 0 mm
10:25 27.4 °C 18.2 °C 1011.7 hPa WSW 6.4 km/h 9.3 km/h 57 % 0 mm
10:30 27.8 °C 17.9 °C 1011.7 hPa SW 5.8 km/h 7.4 km/h 55 % 0 mm
10:35 28.2 °C 17.7 °C 1011.7 hPa SW 2.4 km/h 5.6 km/h 53 % 0 mm
10:41 28.4 °C 17.3 °C 1012.1 hPa SW 11.3 km/h 16.1 km/h 51 % 0 mm
10:46 28.7 °C 17.2 °C 1011.7 hPa WSW 8 km/h 12.9 km/h 50 % 0 mm
10:51 28.9 °C 18.3 °C 1011.7 hPa WSW 8 km/h 12.9 km/h 53 % 0 mm
10:56 29.1 °C 18.5 °C 1011.7 hPa WSW 3.2 km/h 12.9 km/h 53 % 0 mm
11:01 29.3 °C 19.1 °C 1011.7 hPa SW 1.9 km/h 7.4 km/h 54 % 0 mm
11:06 29.5 °C 18 °C 1011.7 hPa West 1.6 km/h 12.9 km/h 50 % 0 mm
11:11 29.5 °C 18.9 °C 1011.7 hPa Calm   4.8 km/h 53 % 0 mm
11:16 29.6 °C 17.7 °C 1011.7 hPa NW 1.8 km/h 3.7 km/h 49 % 0 mm
11:20 29.7 °C 18.8 °C 1011.7 hPa NW 0.8 km/h 1.9 km/h 52 % 0 mm
11:26 29.9 °C 19.3 °C 1011.7 hPa WNW 1.3 km/h 7.4 km/h 53 % 0 mm
11:31 30.1 °C 20.1 °C 1011.7 hPa North 1.6 km/h 8 km/h 55 % 0 mm
11:36 30.3 °C 18.7 °C 1011.7 hPa NW 1.6 km/h 9.7 km/h 50 % 0 mm
11:41 30.7 °C 19.3 °C 1011.7 hPa WNW 3.2 km/h 11.3 km/h 51 % 0 mm
11:46 30.8 °C 17.9 °C 1011.7 hPa WNW 4.8 km/h 14.5 km/h 46 % 0 mm
11:51 30.8 °C 17.9 °C 1011.7 hPa WNW 4.8 km/h 9.7 km/h 46 % 0 mm
11:56 30.5 °C 17.9 °C 1011.7 hPa NW 4.8 km/h 12.9 km/h 47 % 0 mm
12:01 30.3 °C 19 °C 1011.7 hPa NW 3.1 km/h 3.7 km/h 51 % 0 mm
12:06 30.2 °C 18.3 °C 1011.7 hPa NW 3.7 km/h 7.4 km/h 49 % 0 mm
12:11 30.2 °C 19.6 °C 1011.7 hPa WNW 3.2 km/h 5.6 km/h 53 % 0 mm
12:16 30 °C 17.8 °C 1011.7 hPa North 3.9 km/h 9.7 km/h 48 % 0 mm
12:21 30.1 °C 18.2 °C 1011.7 hPa NW 5 km/h 11.1 km/h 49 % 0 mm
12:26 30.3 °C 18.7 °C 1011.7 hPa NW 1.4 km/h 14.8 km/h 50 % 0 mm
12:31 30.4 °C 18.2 °C 1011.4 hPa SSW 5.8 km/h 11.3 km/h 48 % 0 mm
12:36 30.6 °C 17.7 °C 1011.4 hPa West 4 km/h 9.3 km/h 46 % 0 mm
12:41 30.8 °C 17.8 °C 1011.4 hPa West 8.5 km/h 14.8 km/h 46 % 0 mm
12:46 30.9 °C 18.3 °C 1011.4 hPa WNW 5 km/h 9.3 km/h 47 % 0 mm
12:51 31.1 °C 18.8 °C 1011.1 hPa WNW 4.5 km/h 9.3 km/h 48 % 0 mm
12:56 31.3 °C 17.6 °C 1011.1 hPa WSW 7.4 km/h 13 km/h 44 % 0 mm
13:01 31.3 °C 17.3 °C 1011.1 hPa WSW 9.3 km/h 14.5 km/h 43 % 0 mm
13:06 31.4 °C 18.4 °C 1011.1 hPa WSW 4.8 km/h 14.8 km/h 46 % 0 mm
13:11 31.4 °C 18.1 °C 1010.7 hPa WNW 3.2 km/h 7.4 km/h 45 % 0 mm
13:16 31.3 °C 18 °C 1010.7 hPa West 2.1 km/h 7.4 km/h 45 % 0 mm
13:21 31.1 °C 18.1 °C 1010.7 hPa WSW 2.4 km/h 5.6 km/h 46 % 0 mm
13:26 30.8 °C 17.5 °C 1010.7 hPa WNW 1.6 km/h 5.6 km/h 45 % 0 mm
13:31 30.4 °C 16.8 °C 1010.7 hPa NW 11.9 km/h 18.5 km/h 44 % 0 mm
13:36 30.2 °C 17.7 °C 1010.7 hPa WNW 1 km/h 5.6 km/h 47 % 0 mm
13:41 30.3 °C 17.4 °C 1010.4 hPa WSW 11.6 km/h 16.1 km/h 46 % 0 mm
13:46 30.4 °C 17.4 °C 1010.4 hPa SW 3.7 km/h 5.6 km/h 46 % 0 mm
13:52 30.6 °C 19 °C 1010.4 hPa SW 5.5 km/h 9.7 km/h 50 % 0 mm
13:57 30.6 °C 17.7 °C 1010.4 hPa WNW 6.9 km/h 11.1 km/h 46 % 0 mm
14:02 30.6 °C 17.7 °C 1010.4 hPa SSW 3.4 km/h 5.6 km/h 46 % 0 mm
14:07 30.7 °C 17.8 °C 1010 hPa NNW 5.1 km/h 11.1 km/h 46 % 0 mm
14:12 30.9 °C 18.3 °C 1010 hPa SW 3.7 km/h 11.1 km/h 47 % 0 mm
14:17 30.9 °C 18.3 °C 1010 hPa WSW 6.1 km/h 12.9 km/h 47 % 0 mm
14:22 31.1 °C 18.4 °C 1010 hPa WSW 5.8 km/h 11.3 km/h 47 % 0 mm
14:27 31.2 °C 17.4 °C 1010 hPa South 9.5 km/h 14.8 km/h 44 % 0 mm
14:32 31.2 °C 17.2 °C 1010 hPa SW 7.9 km/h 11.1 km/h 43 % 0 mm
14:37 31.3 °C 17.6 °C 1010 hPa NW 3.1 km/h 6.4 km/h 44 % 0 mm
14:42 31.4 °C 17.7 °C 1010 hPa WNW 3.9 km/h 11.1 km/h 44 % 0 mm
14:47 31.4 °C 19.1 °C 1010 hPa NW 1.1 km/h 3.7 km/h 48 % 0 mm
14:52 31.6 °C 18.2 °C 1010 hPa SW 4.8 km/h 7.4 km/h 45 % 0 mm
14:57 31.7 °C 18.3 °C 1009.7 hPa NW 2.7 km/h 14.8 km/h 45 % 0 mm
15:02 31.7 °C 17.2 °C 1009.7 hPa SSW 7.2 km/h 18.5 km/h 42 % 0 mm
15:07 31.7 °C 16.4 °C 1009.7 hPa WSW 9.3 km/h 13 km/h 40 % 0 mm
15:12 31.8 °C 17.7 °C 1009.7 hPa SSW 9.2 km/h 14.8 km/h 43 % 0 mm
15:17 31.8 °C 17.3 °C 1009.7 hPa SW 6.3 km/h 16.7 km/h 42 % 0 mm
15:22 31.7 °C 16.8 °C 1009.7 hPa WSW 11.9 km/h 20.4 km/h 41 % 0 mm
15:27 31.7 °C 16.4 °C 1009.7 hPa WSW 8.4 km/h 18.5 km/h 40 % 0 mm
15:32 31.6 °C 17.1 °C 1009.7 hPa SW 5.6 km/h 9.3 km/h 42 % 0 mm
15:37 31.5 °C 16.7 °C 1009.7 hPa WNW 5.6 km/h 9.3 km/h 41 % 0 mm
15:42 31.3 °C 16.9 °C 1009.4 hPa West 3.2 km/h 9.3 km/h 42 % 0 mm
15:47 31.2 °C 17.9 °C 1009.7 hPa West 6 km/h 13 km/h 45 % 0 mm
15:52 31.1 °C 18.1 °C 1009.4 hPa SW 4 km/h 11.3 km/h 46 % 0 mm
15:57 30.9 °C 17.3 °C 1009.4 hPa SW 4.3 km/h 13 km/h 44 % 0 mm
16:02 30.9 °C 16.9 °C 1009.4 hPa WSW 5.8 km/h 13 km/h 43 % 0 mm
16:07 30.9 °C 16.8 °C 1009.4 hPa WSW 4.7 km/h 9.3 km/h 43 % 0 mm
16:12 30.9 °C 17.9 °C 1009.4 hPa West 2.1 km/h 11.3 km/h 46 % 0 mm
16:17 30.9 °C 17.3 °C 1009.7 hPa SSW 5.8 km/h 16.1 km/h 44 % 0 mm
16:22 30.9 °C 16.9 °C 1009.4 hPa WNW 6.8 km/h 11.1 km/h 43 % 0 mm
16:27 30.9 °C 16.6 °C 1009.4 hPa West 8.2 km/h 13 km/h 42 % 0 mm
16:32 31 °C 16.6 °C 1009.7 hPa SW 6.9 km/h 11.1 km/h 42 % 0 mm
16:37 31 °C 16.9 °C 1009.4 hPa West 3.4 km/h 9.3 km/h 43 % 0 mm
16:42 31 °C 16.9 °C 1009.4 hPa SW 5.6 km/h 9.3 km/h 43 % 0 mm
16:47 31 °C 16.9 °C 1009.4 hPa West 6.6 km/h 9.7 km/h 43 % 0 mm
16:52 30.9 °C 16.2 °C 1009.4 hPa WSW 5.8 km/h 13 km/h 41 % 0 mm
16:57 30.8 °C 16.8 °C 1009.4 hPa WSW 6.1 km/h 7.4 km/h 43 % 0 mm
17:02 30.7 °C 16.3 °C 1009.4 hPa WSW 7.1 km/h 16.7 km/h 42 % 0 mm
17:07 30.5 °C 16.5 °C 1009.4 hPa West 4.5 km/h 13 km/h 43 % 0 mm
17:12 30.3 °C 16 °C 1009 hPa SW 10.1 km/h 16.7 km/h 42 % 0 mm
17:17 30.1 °C 16.4 °C 1009 hPa SSW 2.1 km/h 5.6 km/h 44 % 0 mm
17:22 29.8 °C 16.6 °C 1009.4 hPa WSW 6.6 km/h 18.5 km/h 45 % 0 mm
17:27 29.6 °C 16 °C 1009.4 hPa WSW 1.9 km/h 9.7 km/h 44 % 0 mm
17:32 29.3 °C 16.1 °C 1009.4 hPa WSW 3.1 km/h 8 km/h 45 % 0 mm
17:37 28.9 °C 15.8 °C 1009.7 hPa SW 6.6 km/h 20.4 km/h 45 % 0 mm
17:42 28.6 °C 16.8 °C 1010 hPa SW 10 km/h 25.9 km/h 49 % 0 mm
17:47 28.1 °C 16.9 °C 1010 hPa South 7.4 km/h 14.8 km/h 51 % 0 mm
17:52 27.7 °C 16 °C 1009.7 hPa SSW 11.3 km/h 16.7 km/h 49 % 0 mm
17:58 27.3 °C 15.9 °C 1009.7 hPa SSW 7.7 km/h 13 km/h 50 % 0 mm
18:03 27.1 °C 16.3 °C 1009.7 hPa SW 1.9 km/h 8 km/h 52 % 0 mm
18:08 26.8 °C 16.7 °C 1009.7 hPa SSW 7.9 km/h 14.8 km/h 54 % 0 mm
18:13 26.6 °C 16.2 °C 1009.7 hPa SW 0.6 km/h 3.7 km/h 53 % 0 mm
18:18 26.3 °C 16.6 °C 1009.7 hPa SE 0.5 km/h 3.7 km/h 55 % 0 mm
18:23 26.2 °C 17 °C 1010 hPa SSW 1.4 km/h 5.6 km/h 57 % 0 mm
18:28 26.1 °C 16.9 °C 1010 hPa WSW 0.5 km/h 3.7 km/h 57 % 0 mm
18:33 26 °C 17.1 °C 1010 hPa SW 0.6 km/h 5.6 km/h 58 % 0 mm
18:38 25.9 °C 17.3 °C 1010 hPa Calm   3.7 km/h 59 % 0 mm
18:43 25.8 °C 17.4 °C 1010 hPa Calm   1.9 km/h 60 % 0 mm
18:48 25.7 °C 17.4 °C 1010 hPa WSW 1.4 km/h 4.8 km/h 60 % 0 mm
18:53 25.6 °C 17.5 °C 1010 hPa Calm   1.6 km/h 61 % 0 mm
18:58 25.5 °C 17.7 °C 1010 hPa SW 0.5 km/h 1.9 km/h 62 % 0 mm
19:03 25.4 °C 17.6 °C 1010 hPa SW 0.3 km/h 1.9 km/h 62 % 0 mm
19:08 25.4 °C 17.8 °C 1010 hPa SW 0.6 km/h 5.6 km/h 63 % 0 mm
19:13 25.3 °C 17.7 °C 1010 hPa WSW 1.3 km/h 5.6 km/h 63 % 0 mm
19:18 25.3 °C 17.7 °C 1010 hPa WSW 3.4 km/h 5.6 km/h 63 % 0 mm
19:23 25.2 °C 17.7 °C 1010 hPa WSW 0.3 km/h 1.9 km/h 63 % 0 mm
19:25 25.2 °C 17.7 °C 1010 hPa WSW 0.6 km/h 3.7 km/h 63 % 0 mm
19:29 25.2 °C 17.7 °C 1010 hPa SW 2.4 km/h 5.6 km/h 63 % 0 mm
19:34 25.2 °C 17.6 °C 1010 hPa West 0.6 km/h 3.7 km/h 63 % 0 mm
19:39 25.1 °C 17.6 °C 1010 hPa West 0.2 km/h 1.9 km/h 63 % 0 mm
19:44 25.1 °C 17.8 °C 1010 hPa West 0.2 km/h 1.9 km/h 64 % 0 mm
19:49 25 °C 17.7 °C 1010 hPa Calm     64 % 0 mm
19:54 24.9 °C 17.9 °C 1010 hPa Calm   1.9 km/h 65 % 0 mm
19:59 24.8 °C 17.8 °C 1010 hPa South 0.2 km/h 3.7 km/h 65 % 0 mm
20:04 24.7 °C 18.1 °C 1010 hPa SSE 0.3 km/h 3.7 km/h 67 % 0 mm
20:09 24.5 °C 17.9 °C 1010 hPa Calm   1.9 km/h 67 % 0 mm
20:14 24.4 °C 18.1 °C 1010 hPa Calm   1.9 km/h 68 % 0 mm
20:19 24.3 °C 18 °C 1010 hPa SSE 0.3 km/h 1.9 km/h 68 % 0 mm
20:24 24.2 °C 18.1 °C 1010 hPa Calm     69 % 0 mm
20:29 24.1 °C 18.2 °C 1010.4 hPa Calm   1.9 km/h 70 % 0 mm
20:34 23.9 °C 18.4 °C 1010.4 hPa Calm     71 % 0 mm
20:39 23.8 °C 18.5 °C 1010.4 hPa Calm     72 % 0 mm
20:44 23.7 °C 18.6 °C 1010.4 hPa Calm     73 % 0 mm
20:49 23.5 °C 18.4 °C 1010.7 hPa Calm     73 % 0 mm
20:54 23.4 °C 18.3 °C 1010.7 hPa South 0.2 km/h 1.9 km/h 73 % 0 mm
20:55 23.4 °C 18.5 °C 1010.7 hPa Calm   1.9 km/h 74 % 0 mm
21:00 23.2 °C 18.3 °C 1010.7 hPa SSW 1.3 km/h 5.6 km/h 74 % 0 mm
21:05 23.1 °C 18.4 °C 1010.7 hPa Calm     75 % 0 mm
21:10 22.9 °C 18.3 °C 1011.1 hPa WSW 0.8 km/h 3.7 km/h 75 % 0 mm
21:15 22.8 °C 18.2 °C 1010.7 hPa WSW 1.1 km/h 5.6 km/h 75 % 0 mm
21:20 22.7 °C 18.3 °C 1011.1 hPa Calm   3.7 km/h 76 % 0 mm
21:25 22.7 °C 18 °C 1011.1 hPa Calm     75 % 0 mm
21:30 22.6 °C 17.9 °C 1011.1 hPa Calm     75 % 0 mm
21:35 22.5 °C 17.8 °C 1011.4 hPa Calm     75 % 0 mm
21:40 22.4 °C 17.8 °C 1011.4 hPa Calm   1.9 km/h 75 % 0 mm
21:45 22.3 °C 17.7 °C 1011.7 hPa SW 6 km/h 7.4 km/h 75 % 0 mm
21:50 22.3 °C 17.7 °C 1011.7 hPa SW 1 km/h 4.8 km/h 75 % 0 mm
21:55 22.3 °C 17.7 °C 1011.7 hPa SW 0.3 km/h 3.7 km/h 75 % 0 mm
22:00 22.3 °C 17.6 °C 1011.7 hPa Calm     75 % 0 mm
22:05 22.3 °C 17.6 °C 1011.7 hPa SW 0.2 km/h 1.9 km/h 75 % 0 mm
22:10 22.3 °C 17.4 °C 1011.7 hPa Calm   1.9 km/h 74 % 0 mm
22:15 22.2 °C 17.4 °C 1011.7 hPa SW 0.6 km/h 1.9 km/h 74 % 0 mm
22:20 22.2 °C 17.4 °C 1011.7 hPa SW 0.8 km/h 3.7 km/h 74 % 0 mm
22:25 22.2 °C 17.3 °C 1011.7 hPa West 0.6 km/h 5.6 km/h 74 % 0 mm
22:30 22.2 °C 17.3 °C 1011.7 hPa WSW 4 km/h 6.4 km/h 74 % 0 mm
22:35 22.1 °C 17.3 °C 1011.7 hPa WSW 3.7 km/h 7.4 km/h 74 % 0 mm
22:40 22.1 °C 17.2 °C 1011.7 hPa Calm     74 % 0 mm
22:45 22 °C 17.4 °C 1011.7 hPa WSW 2.9 km/h 5.6 km/h 75 % 0 mm
22:50 21.9 °C 17.3 °C 1011.7 hPa WSW 5 km/h 7.4 km/h 75 % 0 mm
22:56 21.9 °C 17.3 °C 1011.7 hPa WSW 3.1 km/h 5.6 km/h 75 % 0 mm
23:01 21.8 °C 17.2 °C 1011.7 hPa WSW 3.7 km/h 6.4 km/h 75 % 0 mm
23:06 21.8 °C 17.2 °C 1011.7 hPa WSW 3.2 km/h 5.6 km/h 75 % 0 mm
23:11 21.8 °C 17.2 °C 1011.7 hPa WSW 1.4 km/h 3.7 km/h 75 % 0 mm
23:16 21.8 °C 17.2 °C 1011.7 hPa WSW 2.9 km/h 3.7 km/h 75 % 0 mm
23:21 21.8 °C 17.2 °C 1012.1 hPa WSW 3.2 km/h 6.4 km/h 75 % 0 mm
23:26 21.7 °C 17.3 °C 1012.1 hPa WSW 3.2 km/h 5.6 km/h 76 % 0 mm
23:31 21.7 °C 17.3 °C 1012.1 hPa Calm     76 % 0 mm
23:36 21.7 °C 17.3 °C 1012.1 hPa WSW 1.6 km/h 4.8 km/h 76 % 0 mm
23:41 21.6 °C 17.2 °C 1012.4 hPa WSW 1.6 km/h 4.8 km/h 76 % 0 mm
23:46 21.6 °C 17.2 °C 1012.4 hPa Calm   3.2 km/h 76 % 0 mm
23:48 21.5 °C 17.1 °C 1012.4 hPa WSW 0.2 km/h 1.9 km/h 76 % 0 mm
23:53 21.4 °C 17.2 °C 1012.4 hPa WSW 0.3 km/h 1.9 km/h 77 % 0 mm
23:59 21.4 °C 17.2 °C 1012.4 hPa Calm     77 % 0 mm
Crab Meadow Weather
Compliments of Weather Underground - 3 mb

Script developed by  Jim McMurry - jmcmurry@mwt.net Adapted for the template by  Wim van der Kuil - Leuven-Template.eu

Recycling: Americans threw away 38 billion plastic water bottles in 2006. A million and a half barrels of oil - enough to fuel 100,000 cars for a year - were used to produce the bottles.